Time;durP1;ratioP1;P1;durP2;ratioP2;P2;SDS_P1;SDS_P2;PMS_P1;PMS_P2;Temp;Humidity;BMP_temperature;BMP_pressure;BME280_temperature;BME280_humidity;BME280_pressure;Samples;Min_cycle;Max_cycle;Signal;HPM_P1;HPM_P2
2022/06/29 00:02:17;;;;;;;2.58;2.20;;;;;;;;;;5040074;27;92919;-72
2022/06/29 00:04:43;;;;;;;6.35;2.35;;;;;;;;;;5031261;27;94964;-72
2022/06/29 00:07:10;;;;;;;8.43;2.50;;;;;;;;;;5032995;27;94046;-72
2022/06/29 00:09:36;;;;;;;9.38;3.47;;;;;;;;;;5039880;27;92411;-72
2022/06/29 00:12:03;;;;;;;10.23;2.28;;;;;;;;;;5040341;27;93239;-72
2022/06/29 00:14:29;;;;;;;5.78;2.10;;;;;;;;;;5043970;27;94186;-72
2022/06/29 00:16:55;;;;;;;5.57;2.22;;;;;;;;;;5043341;27;92847;-72
2022/06/29 00:19:22;;;;;;;3.47;2.30;;;;;;;;;;5032329;27;94223;-72
2022/06/29 00:21:48;;;;;;;3.47;2.20;;;;;;;;;;5033501;27;91709;-72
2022/06/29 00:24:15;;;;;;;5.30;2.33;;;;;;;;;;5041934;27;92581;-72
2022/06/29 00:26:43;;;;;;;3.63;1.90;;;;;;;;;;5048146;27;93094;-72
2022/06/29 00:29:09;;;;;;;2.47;2.13;;;;;;;;;;5031175;27;94865;-73
2022/06/29 00:31:35;;;;;;;2.58;2.25;;;;;;;;;;5048152;27;96762;-72
2022/06/29 00:34:05;;;;;;;3.83;2.20;;;;;;;;;;5042977;27;93231;-72
2022/06/29 00:36:31;;;;;;;5.28;2.45;;;;;;;;;;5050375;27;92415;-72
2022/06/29 00:38:58;;;;;;;6.78;2.30;;;;;;;;;;5046114;27;93903;-72
2022/06/29 00:41:24;;;;;;;4.20;2.42;;;;;;;;;;5046700;27;92537;-72
2022/06/29 00:43:50;;;;;;;6.78;2.10;;;;;;;;;;5047505;27;93953;-72
2022/06/29 00:46:17;;;;;;;8.63;2.03;;;;;;;;;;5039075;27;93430;-72
2022/06/29 00:48:43;;;;;;;2.28;2.00;;;;;;;;;;5038860;27;92542;-72
2022/06/29 00:51:11;;;;;;;3.30;2.25;;;;;;;;;;5035398;27;93215;-72
2022/06/29 00:53:40;;;;;;;5.13;1.98;;;;;;;;;;5051475;27;96521;-72
2022/06/29 00:56:10;;;;;;;8.20;2.00;;;;;;;;;;5046518;27;92471;-72
2022/06/29 00:58:37;;;;;;;2.58;1.88;;;;;;;;;;5047968;27;93942;-72
2022/06/29 01:01:04;;;;;;;4.80;2.22;;;;;;;;;;5035504;27;92465;-72
2022/06/29 01:03:32;;;;;;;4.43;2.30;;;;;;;;;;5035411;27;93938;-72
2022/06/29 01:06:00;;;;;;;11.10;2.67;;;;;;;;;;5041433;27;94219;-72
2022/06/29 01:08:26;;;;;;;6.80;2.00;;;;;;;;;;5035968;27;92479;-72
2022/06/29 01:10:53;;;;;;;4.30;2.10;;;;;;;;;;5043186;27;93077;-72
2022/06/29 01:13:19;;;;;;;6.80;2.15;;;;;;;;;;5040460;27;93267;-72
2022/06/29 01:15:46;;;;;;;2.25;2.10;;;;;;;;;;5036775;27;92564;-72
2022/06/29 01:18:12;;;;;;;6.22;2.25;;;;;;;;;;5033143;27;94868;-72
2022/06/29 01:20:38;;;;;;;6.20;1.95;;;;;;;;;;5042899;27;94195;-72
2022/06/29 01:23:05;;;;;;;4.80;2.10;;;;;;;;;;5035721;27;94039;-72
2022/06/29 01:25:33;;;;;;;4.15;2.35;;;;;;;;;;5034435;27;93118;-72
2022/06/29 01:27:59;;;;;;;3.85;2.35;;;;;;;;;;5044171;27;92390;-72
2022/06/29 01:30:26;;;;;;;2.38;2.17;;;;;;;;;;5047037;27;94173;-72
2022/06/29 01:32:52;;;;;;;4.57;1.95;;;;;;;;;;5035599;27;93601;-72
2022/06/29 01:35:22;;;;;;;6.55;2.20;;;;;;;;;;5042415;27;91837;-72
2022/06/29 01:37:49;;;;;;;4.00;2.22;;;;;;;;;;5034066;27;92480;-72
2022/06/29 01:40:15;;;;;;;6.32;2.22;;;;;;;;;;5034658;27;93635;-72
2022/06/29 01:42:42;;;;;;;2.90;2.10;;;;;;;;;;5050910;27;95149;-72
2022/06/29 01:45:08;;;;;;;4.10;1.83;;;;;;;;;;5045536;27;93603;-72
2022/06/29 01:47:35;;;;;;;3.97;2.00;;;;;;;;;;5048689;27;93572;-72
2022/06/29 01:50:02;;;;;;;3.80;2.10;;;;;;;;;;5049295;27;92429;-72
2022/06/29 01:52:28;;;;;;;9.68;2.50;;;;;;;;;;5042363;27;93315;-72
2022/06/29 01:54:54;;;;;;;3.00;1.90;;;;;;;;;;5033028;27;92899;-72
2022/06/29 01:57:21;;;;;;;4.68;2.10;;;;;;;;;;5039605;27;93002;-72
2022/06/29 01:59:47;;;;;;;3.17;2.03;;;;;;;;;;5034954;27;92597;-71
2022/06/29 02:02:13;;;;;;;3.58;2.28;;;;;;;;;;5035397;27;92466;-72
2022/06/29 02:04:40;;;;;;;4.15;2.20;;;;;;;;;;5051196;27;93055;-72
2022/06/29 02:07:06;;;;;;;2.50;1.75;;;;;;;;;;5049470;27;94884;-72
2022/06/29 02:09:33;;;;;;;5.55;2.13;;;;;;;;;;5041155;27;96084;-72
2022/06/29 02:11:59;;;;;;;6.90;2.38;;;;;;;;;;5033734;27;93171;-72
2022/06/29 02:14:25;;;;;;;6.28;2.15;;;;;;;;;;5036749;27;92468;-72
2022/06/29 02:16:52;;;;;;;2.08;1.88;;;;;;;;;;5039273;27;93346;-72
2022/06/29 02:19:18;;;;;;;2.70;2.35;;;;;;;;;;5044852;27;93256;-72
2022/06/29 02:21:45;;;;;;;7.03;2.63;;;;;;;;;;5040571;27;92589;-72
2022/06/29 02:24:11;;;;;;;2.97;2.35;;;;;;;;;;5042503;27;94041;-72
2022/06/29 02:26:37;;;;;;;2.90;2.10;;;;;;;;;;5056284;27;93639;-72
2022/06/29 02:29:04;;;;;;;5.15;2.65;;;;;;;;;;5038586;27;93849;-72
2022/06/29 02:37:00;;;;;;;3.90;2.47;;;;;;;;;;5037452;27;93180;-72
2022/06/29 02:39:26;;;;;;;10.57;2.10;;;;;;;;;;5041690;27;94225;-72
2022/06/29 02:41:53;;;;;;;3.20;2.25;;;;;;;;;;5033132;27;92676;-73
2022/06/29 02:44:19;;;;;;;6.55;2.40;;;;;;;;;;5033193;27;93926;-72
2022/06/29 02:46:45;;;;;;;8.55;2.47;;;;;;;;;;5049655;27;93253;-72
2022/06/29 02:49:12;;;;;;;3.85;2.53;;;;;;;;;;5041109;27;91972;-72
2022/06/29 02:51:38;;;;;;;2.40;2.10;;;;;;;;;;5035180;27;95062;-72
2022/06/29 02:54:05;;;;;;;2.22;2.10;;;;;;;;;;5044765;27;92475;-72
2022/06/29 02:56:31;;;;;;;3.53;2.15;;;;;;;;;;5041700;27;94734;-72
2022/06/29 02:58:57;;;;;;;2.63;2.38;;;;;;;;;;5036886;27;94057;-72
2022/06/29 03:01:24;;;;;;;2.50;2.28;;;;;;;;;;5036947;27;92452;-72
2022/06/29 03:03:51;;;;;;;6.38;2.78;;;;;;;;;;5034416;27;93080;-72
2022/06/29 03:06:17;;;;;;;7.20;2.80;;;;;;;;;;5043881;27;93428;-72
2022/06/29 03:08:43;;;;;;;3.08;2.38;;;;;;;;;;5051469;27;92503;-72
2022/06/29 03:11:11;;;;;;;4.28;2.47;;;;;;;;;;5033029;27;93292;-72
2022/06/29 03:13:37;;;;;;;4.30;2.55;;;;;;;;;;5040955;27;91774;-72
2022/06/29 03:16:04;;;;;;;4.13;2.90;;;;;;;;;;5033896;27;93381;-72
2022/06/29 03:18:30;;;;;;;4.07;2.47;;;;;;;;;;5032458;27;93632;-72
2022/06/29 03:20:56;;;;;;;2.60;2.40;;;;;;;;;;5030245;27;95318;-72
2022/06/29 03:23:23;;;;;;;3.60;2.63;;;;;;;;;;5036977;27;96402;-72
2022/06/29 03:25:49;;;;;;;4.25;2.72;;;;;;;;;;5032580;27;93955;-72
2022/06/29 03:28:16;;;;;;;4.28;2.80;;;;;;;;;;5036959;27;92976;-72
2022/06/29 03:30:42;;;;;;;3.13;2.70;;;;;;;;;;5047361;27;94164;-72
2022/06/29 03:33:08;;;;;;;2.85;2.63;;;;;;;;;;5043071;27;93309;-72
2022/06/29 03:35:35;;;;;;;3.08;2.88;;;;;;;;;;5045197;27;93818;-72
2022/06/29 03:38:01;;;;;;;7.80;3.20;;;;;;;;;;5034202;27;93490;-72
2022/06/29 03:40:28;;;;;;;5.47;2.45;;;;;;;;;;5032706;27;92807;-72
2022/06/29 03:42:55;;;;;;;5.00;2.72;;;;;;;;;;5039415;27;93255;-72
2022/06/29 03:45:22;;;;;;;5.40;3.10;;;;;;;;;;5041329;27;97024;-72
2022/06/29 03:47:49;;;;;;;3.30;3.00;;;;;;;;;;5045782;27;92926;-72
2022/06/29 03:50:15;;;;;;;3.60;3.03;;;;;;;;;;5033033;27;93056;-72
2022/06/29 03:52:42;;;;;;;4.88;3.10;;;;;;;;;;5050031;27;93623;-72
2022/06/29 03:55:08;;;;;;;3.40;3.03;;;;;;;;;;5039581;27;93893;-72
2022/06/29 03:57:35;;;;;;;8.75;3.60;;;;;;;;;;5032514;27;93262;-72
2022/06/29 04:00:03;;;;;;;4.40;3.00;;;;;;;;;;5049293;27;92376;-72
2022/06/29 04:02:38;;;;;;;6.75;3.15;;;;;;;;;;5038487;27;92493;-72
2022/06/29 04:05:04;;;;;;;4.35;2.78;;;;;;;;;;5032620;27;93740;-72
2022/06/29 04:07:31;;;;;;;8.57;2.95;;;;;;;;;;5040112;27;92442;-72
2022/06/29 04:10:00;;;;;;;3.97;3.10;;;;;;;;;;5030800;27;94938;-72
2022/06/29 04:12:28;;;;;;;8.95;3.30;;;;;;;;;;5035799;27;94432;-72
2022/06/29 04:14:54;;;;;;;5.55;3.28;;;;;;;;;;5054109;27;92545;-72
2022/06/29 04:17:20;;;;;;;5.28;3.78;;;;;;;;;;5052053;27;93438;-72
2022/06/29 04:19:47;;;;;;;6.28;3.55;;;;;;;;;;5044220;27;92452;-72
2022/06/29 04:22:13;;;;;;;3.75;2.80;;;;;;;;;;5035716;27;93996;-72
2022/06/29 04:24:40;;;;;;;6.72;3.15;;;;;;;;;;5035064;27;93184;-72
2022/06/29 04:27:06;;;;;;;9.23;3.25;;;;;;;;;;5044205;27;91834;-72
2022/06/29 04:29:32;;;;;;;8.63;3.65;;;;;;;;;;5038665;27;93209;-72
2022/06/29 04:31:59;;;;;;;6.30;3.20;;;;;;;;;;5035753;27;94251;-72
2022/06/29 04:34:25;;;;;;;7.43;3.53;;;;;;;;;;5044080;27;94876;-72
2022/06/29 04:36:52;;;;;;;5.95;3.30;;;;;;;;;;5057801;27;96349;-72
2022/06/29 04:39:18;;;;;;;11.85;3.40;;;;;;;;;;5046398;27;92624;-71
2022/06/29 04:41:45;;;;;;;6.85;3.25;;;;;;;;;;5054070;27;93988;-71
2022/06/29 04:44:11;;;;;;;3.20;2.78;;;;;;;;;;5046856;27;93470;-71
2022/06/29 04:46:38;;;;;;;4.90;3.10;;;;;;;;;;5046388;27;92953;-70
2022/06/29 04:49:04;;;;;;;4.10;3.60;;;;;;;;;;5050859;27;93842;-71
2022/06/29 04:51:31;;;;;;;3.72;3.35;;;;;;;;;;5046948;27;93701;-70
2022/06/29 04:53:59;;;;;;;5.47;4.43;;;;;;;;;;5055505;27;92609;-71
2022/06/29 04:56:26;;;;;;;6.28;3.10;;;;;;;;;;5041689;27;92845;-71
2022/06/29 04:58:53;;;;;;;5.50;3.47;;;;;;;;;;5033339;27;96077;-71
2022/06/29 05:01:27;;;;;;;4.53;3.20;;;;;;;;;;5035085;27;95509;-71
2022/06/29 05:03:54;;;;;;;4.57;3.33;;;;;;;;;;5035789;27;94101;-73
2022/06/29 05:06:20;;;;;;;4.10;3.70;;;;;;;;;;5034206;27;92475;-71
2022/06/29 05:08:48;;;;;;;3.03;2.85;;;;;;;;;;5037043;27;93159;-71
2022/06/29 05:11:15;;;;;;;3.28;2.85;;;;;;;;;;5046096;27;93504;-71
2022/06/29 05:13:41;;;;;;;5.47;3.42;;;;;;;;;;5044370;27;92555;-71
2022/06/29 05:16:08;;;;;;;7.18;3.70;;;;;;;;;;5040203;27;91957;-71
2022/06/29 05:18:35;;;;;;;4.03;3.13;;;;;;;;;;5040517;27;94130;-71
2022/06/29 05:21:01;;;;;;;4.70;3.58;;;;;;;;;;5035296;27;94282;-71
2022/06/29 05:23:30;;;;;;;4.20;3.08;;;;;;;;;;5041834;27;96565;-71
2022/06/29 05:25:57;;;;;;;4.63;3.22;;;;;;;;;;5033403;27;92527;-71
2022/06/29 05:28:23;;;;;;;8.70;3.00;;;;;;;;;;5035176;27;93042;-71
2022/06/29 05:30:50;;;;;;;9.48;3.20;;;;;;;;;;5042755;27;94251;-71
2022/06/29 05:33:16;;;;;;;7.07;3.63;;;;;;;;;;5033877;27;92526;-71
2022/06/29 05:35:43;;;;;;;3.72;3.30;;;;;;;;;;5034973;27;94280;-71
2022/06/29 05:38:09;;;;;;;5.63;3.35;;;;;;;;;;5035135;27;94073;-71
2022/06/29 05:40:36;;;;;;;9.38;3.05;;;;;;;;;;5037067;27;91656;-72
2022/06/29 05:43:03;;;;;;;3.47;2.90;;;;;;;;;;5034385;27;94229;-72
2022/06/29 05:45:29;;;;;;;6.78;2.80;;;;;;;;;;5042934;27;92488;-72
2022/06/29 05:47:56;;;;;;;6.38;2.97;;;;;;;;;;5037308;27;95952;-71
2022/06/29 05:50:23;;;;;;;8.27;3.30;;;;;;;;;;5034665;27;94323;-72
2022/06/29 05:52:50;;;;;;;5.43;3.20;;;;;;;;;;5041655;27;92532;-71
2022/06/29 05:55:17;;;;;;;5.38;2.67;;;;;;;;;;5034259;27;93429;-72
2022/06/29 05:57:43;;;;;;;6.97;3.50;;;;;;;;;;5034399;27;94208;-72
2022/06/29 06:00:10;;;;;;;10.00;3.45;;;;;;;;;;5050243;27;94084;-72
2022/06/29 06:02:39;;;;;;;3.95;3.30;;;;;;;;;;5044397;27;93020;-72
2022/06/29 06:05:06;;;;;;;6.30;3.33;;;;;;;;;;5042267;27;91855;-72
2022/06/29 06:07:33;;;;;;;7.03;2.95;;;;;;;;;;5039889;27;94374;-73
2022/06/29 06:09:59;;;;;;;4.75;3.80;;;;;;;;;;5037508;27;94145;-72
2022/06/29 06:12:25;;;;;;;5.57;3.10;;;;;;;;;;5031976;27;94932;-72
2022/06/29 06:14:52;;;;;;;12.20;3.63;;;;;;;;;;5038183;27;96383;-72
2022/06/29 06:17:18;;;;;;;7.72;2.88;;;;;;;;;;5035137;27;93499;-72
2022/06/29 06:19:45;;;;;;;8.45;3.42;;;;;;;;;;5031594;27;93357;-72
2022/06/29 06:22:12;;;;;;;3.45;2.85;;;;;;;;;;5031784;27;93910;-72
2022/06/29 06:24:39;;;;;;;7.53;3.10;;;;;;;;;;5038575;27;93500;-72
2022/06/29 06:27:05;;;;;;;5.10;2.90;;;;;;;;;;5040152;27;93953;-72
2022/06/29 06:29:31;;;;;;;6.25;2.67;;;;;;;;;;5036983;27;92737;-72
2022/06/29 06:31:58;;;;;;;6.68;2.70;;;;;;;;;;5052551;27;92676;-72
2022/06/29 06:34:26;;;;;;;4.30;2.38;;;;;;;;;;5045833;27;93973;-72
2022/06/29 06:36:52;;;;;;;5.40;2.78;;;;;;;;;;5030141;27;95923;-72
2022/06/29 06:39:19;;;;;;;7.15;2.97;;;;;;;;;;5036236;27;92990;-72
2022/06/29 06:41:45;;;;;;;12.40;2.75;;;;;;;;;;5039116;27;93336;-72
2022/06/29 06:44:12;;;;;;;4.05;2.65;;;;;;;;;;5037031;27;94566;-72
2022/06/29 06:46:38;;;;;;;7.38;2.90;;;;;;;;;;5044343;27;92565;-72
2022/06/29 06:49:05;;;;;;;6.75;3.05;;;;;;;;;;5033491;27;94197;-72
2022/06/29 06:51:31;;;;;;;4.15;2.38;;;;;;;;;;5032945;27;92848;-72
2022/06/29 06:53:58;;;;;;;5.55;2.55;;;;;;;;;;5035277;27;93054;-73
2022/06/29 06:56:24;;;;;;;7.85;2.75;;;;;;;;;;5031591;27;93336;-73
2022/06/29 06:58:50;;;;;;;5.55;2.88;;;;;;;;;;5036065;27;92752;-72
2022/06/29 07:01:20;;;;;;;5.53;2.75;;;;;;;;;;5034288;27;97766;-72
2022/06/29 07:03:47;;;;;;;7.65;2.75;;;;;;;;;;5035804;27;95576;-72
2022/06/29 07:06:13;;;;;;;4.93;2.88;;;;;;;;;;5038946;27;92648;-73
2022/06/29 07:08:40;;;;;;;8.10;2.63;;;;;;;;;;5032873;27;94130;-72
2022/06/29 07:11:07;;;;;;;2.25;2.05;;;;;;;;;;5032603;27;92558;-73
2022/06/29 07:13:34;;;;;;;11.73;3.03;;;;;;;;;;5035363;27;93934;-73
2022/06/29 07:16:05;;;;;;;6.20;3.00;;;;;;;;;;5039697;27;94280;-72
2022/06/29 07:18:31;;;;;;;;;;;;;;;;;;5037435;27;91733;-75
2022/06/29 07:20:58;;;;;;;8.07;2.67;;;;;;;;;;5032790;27;122372;-72
2022/06/29 07:23:24;;;;;;;4.75;3.00;;;;;;;;;;5037751;27;94173;-73
2022/06/29 07:25:51;;;;;;;7.03;2.63;;;;;;;;;;5029107;27;95415;-72
2022/06/29 07:28:17;;;;;;;5.25;3.10;;;;;;;;;;5037291;27;95519;-72
2022/06/29 07:30:43;;;;;;;5.90;3.28;;;;;;;;;;5033480;27;93959;-72
2022/06/29 07:33:10;;;;;;;6.07;2.95;;;;;;;;;;5037555;27;93833;-72
2022/06/29 07:35:37;;;;;;;8.00;3.08;;;;;;;;;;5035638;27;93303;-71
2022/06/29 07:38:03;;;;;;;6.18;2.53;;;;;;;;;;5031076;27;93316;-72
2022/06/29 07:40:29;;;;;;;4.78;2.60;;;;;;;;;;5043088;27;93659;-72
2022/06/29 07:42:56;;;;;;;3.38;2.53;;;;;;;;;;5039664;27;92839;-72
2022/06/29 07:45:22;;;;;;;8.35;2.63;;;;;;;;;;5032795;27;92519;-73
2022/06/29 07:47:52;;;;;;;7.38;2.88;;;;;;;;;;5032565;27;93195;-73
2022/06/29 07:50:19;;;;;;;4.57;2.80;;;;;;;;;;5038742;27;95909;-73
2022/06/29 07:52:45;;;;;;;3.13;2.53;;;;;;;;;;5035962;27;95261;-73
2022/06/29 07:55:12;;;;;;;8.35;2.38;;;;;;;;;;5037552;27;93369;-73
2022/06/29 07:57:38;;;;;;;3.28;2.05;;;;;;;;;;5049990;27;92635;-73
2022/06/29 08:00:05;;;;;;;5.38;2.08;;;;;;;;;;5045891;27;94135;-73
2022/06/29 08:02:37;;;;;;;4.43;2.30;;;;;;;;;;5044951;27;93222;-73
2022/06/29 08:05:04;;;;;;;3.45;2.20;;;;;;;;;;5046729;27;92553;-73
2022/06/29 08:07:32;;;;;;;4.40;2.40;;;;;;;;;;5055525;27;93043;-73
2022/06/29 08:09:58;;;;;;;2.78;2.05;;;;;;;;;;5047502;27;94085;-73
2022/06/29 08:12:24;;;;;;;5.18;2.08;;;;;;;;;;5050731;27;92497;-73
2022/06/29 08:14:51;;;;;;;2.95;2.35;;;;;;;;;;5045192;27;96591;-72
2022/06/29 08:17:17;;;;;;;7.00;2.42;;;;;;;;;;5045945;27;92961;-72
2022/06/29 08:19:44;;;;;;;5.15;2.58;;;;;;;;;;5044475;27;93894;-72
2022/06/29 08:22:11;;;;;;;3.72;2.13;;;;;;;;;;5043908;27;94312;-72
2022/06/29 08:24:38;;;;;;;5.72;2.78;;;;;;;;;;5048447;27;93034;-72
2022/06/29 08:27:04;;;;;;;4.97;2.60;;;;;;;;;;5056340;27;94331;-72
2022/06/29 08:29:51;;;;;;;6.05;2.50;;;;;;;;;;5055267;27;94449;-72
2022/06/29 08:32:17;;;;;;;3.15;2.30;;;;;;;;;;5039205;27;91771;-72
2022/06/29 08:34:44;;;;;;;3.40;2.50;;;;;;;;;;5039341;27;93164;-72
2022/06/29 08:37:10;;;;;;;3.60;2.42;;;;;;;;;;5035688;27;93209;-72
2022/06/29 08:39:36;;;;;;;12.05;2.70;;;;;;;;;;5041805;27;94800;-72
2022/06/29 08:42:04;;;;;;;5.40;3.15;;;;;;;;;;5035523;27;94570;-73
2022/06/29 08:44:34;;;;;;;7.32;2.80;;;;;;;;;;5036320;27;92936;-72
2022/06/29 08:47:01;;;;;;;3.75;2.60;;;;;;;;;;5055152;27;94034;-72
2022/06/29 08:49:27;;;;;;;6.10;2.90;;;;;;;;;;5052698;27;94098;-72
2022/06/29 08:51:56;;;;;;;4.47;2.65;;;;;;;;;;5043309;27;93981;-72
2022/06/29 08:54:26;;;;;;;2.78;2.60;;;;;;;;;;5034513;27;94470;-72
2022/06/29 08:56:56;;;;;;;3.85;2.65;;;;;;;;;;5036936;27;93583;-72
2022/06/29 08:59:23;;;;;;;6.43;2.70;;;;;;;;;;5042322;27;95093;-72
2022/06/29 09:02:10;;;;;;;2.47;2.00;;;;;;;;;;5034412;27;94616;-72
2022/06/29 09:04:37;;;;;;;3.40;2.78;;;;;;;;;;5032194;27;95973;-72
2022/06/29 09:07:03;;;;;;;5.07;2.30;;;;;;;;;;5039310;27;96433;-73
2022/06/29 09:09:30;;;;;;;6.80;2.80;;;;;;;;;;5037082;27;94331;-72
2022/06/29 09:11:56;;;;;;;5.57;2.28;;;;;;;;;;5033084;27;92458;-72
2022/06/29 09:14:24;;;;;;;6.45;2.20;;;;;;;;;;5019217;27;93276;-72
2022/06/29 09:16:50;;;;;;;8.63;2.35;;;;;;;;;;5048489;27;94020;-73
2022/06/29 09:19:18;;;;;;;5.80;2.25;;;;;;;;;;5050032;27;93952;-72
2022/06/29 09:21:44;;;;;;;7.60;2.53;;;;;;;;;;5042402;27;93450;-72
2022/06/29 09:24:17;;;;;;;7.22;2.03;;;;;;;;;;5034191;27;92601;-73
2022/06/29 09:26:47;;;;;;;3.70;2.53;;;;;;;;;;5033457;27;94337;-72
2022/06/29 09:29:14;;;;;;;;;;;;;;;;;;5047578;27;96558;-72
2022/06/29 09:31:42;;;;;;;4.97;2.90;;;;;;;;;;5053158;27;116879;-72
2022/06/29 09:34:19;;;;;;;6.53;2.60;;;;;;;;;;5054140;27;93996;-72
2022/06/29 09:36:55;;;;;;;4.10;2.70;;;;;;;;;;5034886;27;94249;-73
2022/06/29 09:39:40;;;;;;;3.38;2.60;;;;;;;;;;5036797;27;92389;-72
2022/06/29 09:42:14;;;;;;;6.60;2.80;;;;;;;;;;4997661;27;1164507;-72
2022/06/29 09:44:41;;;;;;;6.65;2.63;;;;;;;;;;5044323;27;92497;-72
2022/06/29 09:47:09;;;;;;;8.05;2.10;;;;;;;;;;5035308;27;94124;-72
2022/06/29 09:49:36;;;;;;;7.70;2.60;;;;;;;;;;5042053;27;94062;-72
2022/06/29 09:52:03;;;;;;;5.78;2.45;;;;;;;;;;5035108;27;93017;-73
2022/06/29 09:54:38;;;;;;;6.78;1.80;;;;;;;;;;5040620;27;95418;-73
2022/06/29 09:57:05;;;;;;;2.20;1.80;;;;;;;;;;5041794;27;92517;-72
2022/06/29 10:02:34;;;;;;;5.15;2.45;;;;;;;;;;5036694;27;93663;-73
2022/06/29 10:05:04;;;;;;;7.47;2.60;;;;;;;;;;5033990;27;93280;-73
2022/06/29 10:07:31;;;;;;;5.53;1.83;;;;;;;;;;5041179;27;92934;-73
2022/06/29 10:09:57;;;;;;;5.28;2.33;;;;;;;;;;5041963;27;94240;-73
2022/06/29 10:15:37;;;;;;;2.80;2.25;;;;;;;;;;5045860;27;93228;-73
2022/06/29 10:18:08;;;;;;;9.05;2.53;;;;;;;;;;4995356;28;93766;-73
2022/06/29 10:20:42;;;;;;;5.57;2.28;;;;;;;;;;5032737;27;94857;-73
2022/06/29 10:23:28;;;;;;;4.30;2.55;;;;;;;;;;5033399;27;96675;-73
2022/06/29 10:25:55;;;;;;;5.88;2.72;;;;;;;;;;5019120;27;94874;-73
2022/06/29 10:28:23;;;;;;;4.95;2.08;;;;;;;;;;5033636;27;94245;-73
2022/06/29 10:30:50;;;;;;;4.82;2.25;;;;;;;;;;5034065;27;94082;-72
2022/06/29 10:33:28;;;;;;;5.25;2.40;;;;;;;;;;5034471;27;92421;-72
2022/06/29 10:36:07;;;;;;;4.28;1.95;;;;;;;;;;5040646;27;94122;-73
2022/06/29 10:38:54;;;;;;;3.45;2.20;;;;;;;;;;5034358;27;93120;-72
2022/06/29 10:44:06;;;;;;;4.55;2.83;;;;;;;;;;5044481;27;94139;-72
2022/06/29 10:46:51;;;;;;;4.38;1.80;;;;;;;;;;5043624;27;96548;-72
2022/06/29 10:49:21;;;;;;;2.50;1.42;;;;;;;;;;5036533;27;92515;-72
2022/06/29 10:51:50;;;;;;;1.83;1.52;;;;;;;;;;5033227;27;93324;-73
2022/06/29 10:54:24;;;;;;;8.55;1.75;;;;;;;;;;5037894;27;92656;-72
2022/06/29 10:56:51;;;;;;;4.32;1.55;;;;;;;;;;5044350;27;93790;-73
2022/06/29 10:59:37;;;;;;;1.85;1.48;;;;;;;;;;5044531;27;93031;-72
2022/06/29 11:02:10;;;;;;;1.63;1.38;;;;;;;;;;5036890;27;92461;-73
2022/06/29 11:04:37;;;;;;;4.00;1.50;;;;;;;;;;5033437;27;92889;-72
2022/06/29 11:12:50;;;;;;;9.25;1.50;;;;;;;;;;5039029;27;94944;-72
2022/06/29 11:15:39;;;;;;;6.35;1.48;;;;;;;;;;5037048;27;92475;-71
2022/06/29 11:18:07;;;;;;;1.17;1.00;;;;;;;;;;5034342;27;94086;-72
2022/06/29 11:20:34;;;;;;;7.15;1.38;;;;;;;;;;5032592;27;93446;-72
2022/06/29 11:23:01;;;;;;;3.80;1.30;;;;;;;;;;5042158;27;92608;-71
2022/06/29 11:25:34;;;;;;;3.10;1.48;;;;;;;;;;5047083;27;93082;-73
2022/06/29 11:28:00;;;;;;;1.35;1.02;;;;;;;;;;5033091;27;94327;-71
2022/06/29 11:30:27;;;;;;;3.05;1.10;;;;;;;;;;5033789;27;91748;-71
2022/06/29 11:32:53;;;;;;;4.72;1.40;;;;;;;;;;5035262;27;93275;-71
2022/06/29 11:35:23;;;;;;;2.72;1.38;;;;;;;;;;5045338;27;93202;-71
2022/06/29 11:37:54;;;;;;;5.38;1.48;;;;;;;;;;5035695;27;96111;-71
2022/06/29 11:40:29;;;;;;;4.22;1.40;;;;;;;;;;5032106;27;94143;-71
2022/06/29 11:43:05;;;;;;;3.17;1.20;;;;;;;;;;5032288;27;92510;-71
2022/06/29 11:45:39;;;;;;;5.78;1.35;;;;;;;;;;5032334;27;93036;-71
2022/06/29 11:48:14;;;;;;;3.53;1.30;;;;;;;;;;5035022;27;93936;-71
2022/06/29 11:50:48;;;;;;;2.75;1.42;;;;;;;;;;5037887;27;92478;-71
2022/06/29 11:53:34;;;;;;;1.23;1.02;;;;;;;;;;5037439;27;93834;-72
2022/06/29 11:56:01;;;;;;;1.98;1.42;;;;;;;;;;5039951;27;93361;-71
2022/06/29 11:58:28;;;;;;;3.92;1.40;;;;;;;;;;5043886;27;92510;-71
2022/06/29 12:00:54;;;;;;;3.53;1.40;;;;;;;;;;5048245;27;94430;-71
2022/06/29 12:03:22;;;;;;;2.50;1.25;;;;;;;;;;5031622;27;94846;-72
2022/06/29 12:05:58;;;;;;;1.80;1.20;;;;;;;;;;5031838;27;97642;-71
2022/06/29 12:08:26;;;;;;;3.15;1.38;;;;;;;;;;5031408;27;92434;-71
2022/06/29 12:10:52;;;;;;;2.72;1.50;;;;;;;;;;5039471;27;92543;-71
2022/06/29 12:13:19;;;;;;;2.47;1.92;;;;;;;;;;5039236;27;93140;-71
2022/06/29 12:15:45;;;;;;;1.88;1.27;;;;;;;;;;5031671;27;94117;-71
2022/06/29 12:18:12;;;;;;;7.75;1.50;;;;;;;;;;5042711;27;92427;-71
2022/06/29 12:20:38;;;;;;;2.28;1.20;;;;;;;;;;5031904;27;93409;-71
2022/06/29 12:23:05;;;;;;;1.20;1.10;;;;;;;;;;5032677;27;92760;-71
2022/06/29 12:25:34;;;;;;;7.00;1.40;;;;;;;;;;5043799;27;94473;-71
2022/06/29 12:28:01;;;;;;;2.95;1.33;;;;;;;;;;5033296;27;97814;-71
2022/06/29 12:30:27;;;;;;;3.33;1.27;;;;;;;;;;5032424;27;92484;-72
2022/06/29 12:32:54;;;;;;;4.30;1.30;;;;;;;;;;5032405;27;93954;-72
2022/06/29 12:35:20;;;;;;;3.13;1.23;;;;;;;;;;5034593;27;93429;-72
2022/06/29 12:37:46;;;;;;;4.78;1.33;;;;;;;;;;5035627;27;92585;-71
2022/06/29 12:40:13;;;;;;;2.47;1.35;;;;;;;;;;5054239;27;93103;-71
2022/06/29 12:42:40;;;;;;;5.13;1.48;;;;;;;;;;5050393;27;92610;-71
2022/06/29 12:45:07;;;;;;;3.15;1.30;;;;;;;;;;5036255;27;94313;-71
2022/06/29 12:47:33;;;;;;;3.13;1.30;;;;;;;;;;5045972;27;93087;-71
2022/06/29 12:50:00;;;;;;;1.42;1.13;;;;;;;;;;5039829;27;92484;-71
2022/06/29 12:52:26;;;;;;;6.97;1.70;;;;;;;;;;5035064;27;94806;-71
2022/06/29 12:54:53;;;;;;;2.45;1.45;;;;;;;;;;5047226;27;94792;-71
2022/06/29 12:57:19;;;;;;;4.72;1.60;;;;;;;;;;5037985;27;92475;-71
2022/06/29 12:59:46;;;;;;;2.95;1.58;;;;;;;;;;5038218;27;92420;-72
2022/06/29 13:02:12;;;;;;;2.83;1.45;;;;;;;;;;5042879;27;93905;-71
2022/06/29 13:04:38;;;;;;;3.40;1.60;;;;;;;;;;5045204;27;92971;-71
2022/06/29 13:07:05;;;;;;;1.92;1.10;;;;;;;;;;5041473;27;94300;-71
2022/06/29 13:09:31;;;;;;;1.77;1.27;;;;;;;;;;5036267;27;91698;-71
2022/06/29 13:11:58;;;;;;;4.20;1.17;;;;;;;;;;5034813;27;93216;-71
2022/06/29 13:14:25;;;;;;;2.95;1.33;;;;;;;;;;5042915;27;93503;-71
2022/06/29 13:16:51;;;;;;;2.67;1.75;;;;;;;;;;5044382;27;94889;-71
2022/06/29 13:19:17;;;;;;;2.88;1.20;;;;;;;;;;5036468;27;96345;-71
2022/06/29 13:21:44;;;;;;;2.65;1.55;;;;;;;;;;5042605;27;93711;-71
2022/06/29 13:24:11;;;;;;;3.53;1.48;;;;;;;;;;5045757;27;92470;-71
2022/06/29 13:26:37;;;;;;;2.95;1.30;;;;;;;;;;5045950;27;95223;-70
2022/06/29 13:29:04;;;;;;;1.67;1.58;;;;;;;;;;5036037;27;93760;-71
2022/06/29 13:31:32;;;;;;;3.42;2.15;;;;;;;;;;5035303;27;93716;-71
2022/06/29 13:33:58;;;;;;;2.55;1.70;;;;;;;;;;5035858;27;93669;-70
2022/06/29 13:36:25;;;;;;;4.28;1.20;;;;;;;;;;5042183;27;93522;-71
2022/06/29 13:38:52;;;;;;;3.28;1.63;;;;;;;;;;5032672;27;93810;-71
2022/06/29 13:41:20;;;;;;;3.80;1.38;;;;;;;;;;5033624;27;95776;-71
2022/06/29 13:43:46;;;;;;;3.42;1.67;;;;;;;;;;5034892;27;92600;-71
2022/06/29 13:46:13;;;;;;;2.28;1.65;;;;;;;;;;5035717;27;94627;-72
2022/06/29 13:48:39;;;;;;;2.78;1.30;;;;;;;;;;5037610;27;92579;-72
2022/06/29 13:51:05;;;;;;;4.63;1.10;;;;;;;;;;5036169;27;94666;-71
2022/06/29 13:53:33;;;;;;;4.25;1.73;;;;;;;;;;5040716;27;94368;-72
2022/06/29 13:55:59;;;;;;;1.52;1.40;;;;;;;;;;5034103;27;94280;-72
2022/06/29 13:58:26;;;;;;;5.97;1.60;;;;;;;;;;5037769;27;94491;-72
2022/06/29 14:00:52;;;;;;;2.08;1.52;;;;;;;;;;5032613;27;93978;-72
2022/06/29 14:03:19;;;;;;;2.80;1.38;;;;;;;;;;5035382;27;94612;-72
2022/06/29 14:05:46;;;;;;;2.35;1.60;;;;;;;;;;5037519;27;95099;-73
2022/06/29 14:08:12;;;;;;;4.03;1.58;;;;;;;;;;5033343;27;93066;-72
2022/06/29 14:10:59;;;;;;;2.47;1.60;;;;;;;;;;5034161;27;93810;-71
2022/06/29 14:13:26;;;;;;;3.13;1.50;;;;;;;;;;5035370;27;94291;-71
2022/06/29 14:15:52;;;;;;;1.30;1.20;;;;;;;;;;5033903;27;93101;-71
2022/06/29 14:18:19;;;;;;;1.90;1.73;;;;;;;;;;5037462;27;94198;-72
2022/06/29 14:20:48;;;;;;;2.10;1.58;;;;;;;;;;5034813;27;94243;-71
2022/06/29 14:23:14;;;;;;;3.78;1.65;;;;;;;;;;5032694;27;93527;-71
2022/06/29 14:25:41;;;;;;;1.85;1.48;;;;;;;;;;5042008;27;92511;-72
2022/06/29 14:28:07;;;;;;;3.92;1.50;;;;;;;;;;5042744;27;94220;-72
2022/06/29 14:30:34;;;;;;;6.03;1.38;;;;;;;;;;5037129;27;95016;-72
2022/06/29 14:33:00;;;;;;;1.30;1.20;;;;;;;;;;5035375;27;93585;-72
2022/06/29 14:35:27;;;;;;;2.35;1.60;;;;;;;;;;5038190;27;92442;-72
2022/06/29 14:37:54;;;;;;;3.42;1.40;;;;;;;;;;5034939;27;93015;-72
2022/06/29 14:40:21;;;;;;;5.47;1.60;;;;;;;;;;5034173;27;94147;-71
2022/06/29 14:42:49;;;;;;;3.00;1.80;;;;;;;;;;5031488;27;94140;-72
2022/06/29 14:45:16;;;;;;;3.35;1.90;;;;;;;;;;5041973;27;94091;-72
2022/06/29 14:47:42;;;;;;;3.22;1.27;;;;;;;;;;5033451;27;93410;-72
2022/06/29 14:50:08;;;;;;;2.63;1.20;;;;;;;;;;5040015;27;92573;-72
2022/06/29 14:52:36;;;;;;;5.28;1.90;;;;;;;;;;5047378;27;93446;-72
2022/06/29 14:55:03;;;;;;;3.00;1.40;;;;;;;;;;5043895;27;94998;-72
2022/06/29 14:57:29;;;;;;;3.10;1.52;;;;;;;;;;5031396;27;96498;-71
2022/06/29 14:59:56;;;;;;;6.65;1.88;;;;;;;;;;5033817;27;94384;-72
2022/06/29 15:02:23;;;;;;;6.30;1.80;;;;;;;;;;5032096;27;92480;-72
2022/06/29 15:04:49;;;;;;;1.48;1.33;;;;;;;;;;5035862;27;93291;-71
2022/06/29 15:07:15;;;;;;;1.67;1.42;;;;;;;;;;5041212;27;94525;-72